sensor_id;sensor_type;location;lat;lon;timestamp;P1;durP1;ratioP1;P2;durP2;ratioP2
69434;SDS011;56625;54.322;18.582;2022-11-20T00:01:30;26.60;;;7.50;;
69434;SDS011;56625;54.322;18.582;2022-11-20T00:03:58;26.90;;;10.10;;
69434;SDS011;56625;54.322;18.582;2022-11-20T00:06:26;22.90;;;9.20;;
69434;SDS011;56625;54.322;18.582;2022-11-20T00:08:56;23.60;;;9.50;;
69434;SDS011;56625;54.322;18.582;2022-11-20T00:11:26;23.60;;;10.20;;
69434;SDS011;56625;54.322;18.582;2022-11-20T00:13:56;27.20;;;10.00;;
69434;SDS011;56625;54.322;18.582;2022-11-20T00:16:25;22.90;;;9.00;;
69434;SDS011;56625;54.322;18.582;2022-11-20T00:18:54;27.40;;;9.90;;
69434;SDS011;56625;54.322;18.582;2022-11-20T00:21:23;38.80;;;13.70;;
69434;SDS011;56625;54.322;18.582;2022-11-20T00:23:53;45.90;;;17.20;;
69434;SDS011;56625;54.322;18.582;2022-11-20T00:26:23;41.10;;;15.70;;
69434;SDS011;56625;54.322;18.582;2022-11-20T00:28:56;28.70;;;12.00;;
69434;SDS011;56625;54.322;18.582;2022-11-20T00:31:26;23.30;;;9.50;;
69434;SDS011;56625;54.322;18.582;2022-11-20T00:33:54;26.50;;;9.30;;
69434;SDS011;56625;54.322;18.582;2022-11-20T00:36:23;26.70;;;10.00;;
69434;SDS011;56625;54.322;18.582;2022-11-20T00:38:56;24.70;;;10.00;;
69434;SDS011;56625;54.322;18.582;2022-11-20T00:41:26;24.90;;;9.60;;
69434;SDS011;56625;54.322;18.582;2022-11-20T00:43:54;23.60;;;9.00;;
69434;SDS011;56625;54.322;18.582;2022-11-20T00:46:24;27.60;;;10.20;;
69434;SDS011;56625;54.322;18.582;2022-11-20T00:48:52;19.30;;;6.80;;
69434;SDS011;56625;54.322;18.582;2022-11-20T00:51:22;32.90;;;12.10;;
69434;SDS011;56625;54.322;18.582;2022-11-20T00:53:50;38.60;;;13.70;;
69434;SDS011;56625;54.322;18.582;2022-11-20T00:56:18;25.80;;;11.20;;
69434;SDS011;56625;54.322;18.582;2022-11-20T00:58:47;24.10;;;10.20;;
69434;SDS011;56625;54.322;18.582;2022-11-20T01:01:19;23.90;;;9.30;;
69434;SDS011;56625;54.322;18.582;2022-11-20T01:03:49;21.00;;;8.30;;
69434;SDS011;56625;54.322;18.582;2022-11-20T01:06:26;22.20;;;8.80;;
69434;SDS011;56625;54.322;18.582;2022-11-20T01:08:59;24.10;;;10.00;;
69434;SDS011;56625;54.322;18.582;2022-11-20T01:11:29;21.20;;;8.60;;
69434;SDS011;56625;54.322;18.582;2022-11-20T01:13:59;26.00;;;10.50;;
69434;SDS011;56625;54.322;18.582;2022-11-20T01:16:34;37.40;;;12.40;;
69434;SDS011;56625;54.322;18.582;2022-11-20T01:19:05;45.70;;;15.70;;
69434;SDS011;56625;54.322;18.582;2022-11-20T01:21:36;29.20;;;10.70;;
69434;SDS011;56625;54.322;18.582;2022-11-20T01:24:07;29.00;;;11.30;;
69434;SDS011;56625;54.322;18.582;2022-11-20T01:26:38;23.60;;;10.20;;
69434;SDS011;56625;54.322;18.582;2022-11-20T01:29:10;24.80;;;9.90;;
69434;SDS011;56625;54.322;18.582;2022-11-20T01:31:40;27.30;;;10.30;;
69434;SDS011;56625;54.322;18.582;2022-11-20T01:34:16;24.60;;;9.40;;
69434;SDS011;56625;54.322;18.582;2022-11-20T01:36:45;20.70;;;7.70;;
69434;SDS011;56625;54.322;18.582;2022-11-20T01:39:15;21.30;;;8.00;;
69434;SDS011;56625;54.322;18.582;2022-11-20T01:41:46;27.20;;;10.10;;
69434;SDS011;56625;54.322;18.582;2022-11-20T01:44:55;24.80;;;9.10;;
69434;SDS011;56625;54.322;18.582;2022-11-20T01:47:40;32.60;;;11.20;;
69434;SDS011;56625;54.322;18.582;2022-11-20T01:50:16;36.30;;;13.50;;
69434;SDS011;56625;54.322;18.582;2022-11-20T01:53:09;28.00;;;11.30;;
69434;SDS011;56625;54.322;18.582;2022-11-20T01:55:49;24.50;;;9.70;;
69434;SDS011;56625;54.322;18.582;2022-11-20T01:58:23;23.60;;;9.20;;
69434;SDS011;56625;54.322;18.582;2022-11-20T02:00:56;19.60;;;7.30;;
69434;SDS011;56625;54.322;18.582;2022-11-20T02:03:23;21.70;;;8.20;;
69434;SDS011;56625;54.322;18.582;2022-11-20T02:05:55;23.10;;;9.20;;
69434;SDS011;56625;54.322;18.582;2022-11-20T02:08:30;21.70;;;8.00;;
69434;SDS011;56625;54.322;18.582;2022-11-20T02:10:58;23.40;;;8.90;;
69434;SDS011;56625;54.322;18.582;2022-11-20T02:13:25;22.50;;;8.20;;
69434;SDS011;56625;54.322;18.582;2022-11-20T02:16:16;27.70;;;9.40;;
69434;SDS011;56625;54.322;18.582;2022-11-20T02:18:47;36.80;;;12.40;;
69434;SDS011;56625;54.322;18.582;2022-11-20T02:24:10;25.30;;;9.30;;
69434;SDS011;56625;54.322;18.582;2022-11-20T02:29:39;24.10;;;9.40;;
69434;SDS011;56625;54.322;18.582;2022-11-20T02:32:26;23.20;;;9.50;;
69434;SDS011;56625;54.322;18.582;2022-11-20T02:34:57;24.90;;;9.70;;
69434;SDS011;56625;54.322;18.582;2022-11-20T02:37:34;24.00;;;8.60;;
69434;SDS011;56625;54.322;18.582;2022-11-20T02:40:05;25.00;;;9.30;;
69434;SDS011;56625;54.322;18.582;2022-11-20T02:42:32;27.20;;;9.80;;
69434;SDS011;56625;54.322;18.582;2022-11-20T02:44:59;22.10;;;9.00;;
69434;SDS011;56625;54.322;18.582;2022-11-20T02:47:25;30.00;;;11.80;;
69434;SDS011;56625;54.322;18.582;2022-11-20T02:49:52;40.80;;;13.60;;
69434;SDS011;56625;54.322;18.582;2022-11-20T02:52:18;35.20;;;12.10;;
69434;SDS011;56625;54.322;18.582;2022-11-20T02:54:45;17.40;;;7.00;;
69434;SDS011;56625;54.322;18.582;2022-11-20T02:57:11;18.00;;;6.60;;
69434;SDS011;56625;54.322;18.582;2022-11-20T02:59:38;22.90;;;8.60;;
69434;SDS011;56625;54.322;18.582;2022-11-20T03:02:04;20.70;;;8.70;;
69434;SDS011;56625;54.322;18.582;2022-11-20T03:04:31;19.90;;;7.70;;
69434;SDS011;56625;54.322;18.582;2022-11-20T03:06:58;21.10;;;7.80;;
69434;SDS011;56625;54.322;18.582;2022-11-20T03:09:24;24.10;;;9.20;;
69434;SDS011;56625;54.322;18.582;2022-11-20T03:11:51;28.10;;;9.70;;
69434;SDS011;56625;54.322;18.582;2022-11-20T03:14:17;39.30;;;13.50;;
69434;SDS011;56625;54.322;18.582;2022-11-20T03:16:44;34.80;;;11.70;;
69434;SDS011;56625;54.322;18.582;2022-11-20T03:19:11;49.10;;;15.80;;
69434;SDS011;56625;54.322;18.582;2022-11-20T03:21:38;22.90;;;10.40;;
69434;SDS011;56625;54.322;18.582;2022-11-20T03:24:05;20.20;;;8.10;;
69434;SDS011;56625;54.322;18.582;2022-11-20T03:26:33;22.50;;;9.60;;
69434;SDS011;56625;54.322;18.582;2022-11-20T03:29:01;26.80;;;10.70;;
69434;SDS011;56625;54.322;18.582;2022-11-20T03:31:35;25.30;;;10.10;;
69434;SDS011;56625;54.322;18.582;2022-11-20T03:34:04;26.30;;;10.30;;
69434;SDS011;56625;54.322;18.582;2022-11-20T03:36:30;29.40;;;11.30;;
69434;SDS011;56625;54.322;18.582;2022-11-20T03:38:57;22.30;;;8.60;;
69434;SDS011;56625;54.322;18.582;2022-11-20T03:41:26;23.90;;;8.70;;
69434;SDS011;56625;54.322;18.582;2022-11-20T03:43:56;25.60;;;9.50;;
69434;SDS011;56625;54.322;18.582;2022-11-20T03:46:26;45.70;;;16.00;;
69434;SDS011;56625;54.322;18.582;2022-11-20T03:48:54;41.90;;;16.60;;
69434;SDS011;56625;54.322;18.582;2022-11-20T03:51:24;28.50;;;11.10;;
69434;SDS011;56625;54.322;18.582;2022-11-20T03:53:54;25.30;;;11.10;;
69434;SDS011;56625;54.322;18.582;2022-11-20T03:56:30;27.60;;;10.90;;
69434;SDS011;56625;54.322;18.582;2022-11-20T03:58:58;25.30;;;10.70;;
69434;SDS011;56625;54.322;18.582;2022-11-20T04:01:27;29.60;;;10.70;;
69434;SDS011;56625;54.322;18.582;2022-11-20T04:03:56;28.90;;;11.30;;
69434;SDS011;56625;54.322;18.582;2022-11-20T04:06:26;27.60;;;9.80;;
69434;SDS011;56625;54.322;18.582;2022-11-20T04:08:56;26.00;;;10.30;;
69434;SDS011;56625;54.322;18.582;2022-11-20T04:11:28;28.40;;;10.90;;
69434;SDS011;56625;54.322;18.582;2022-11-20T04:14:01;32.40;;;11.90;;
69434;SDS011;56625;54.322;18.582;2022-11-20T04:16:32;46.80;;;15.40;;
69434;SDS011;56625;54.322;18.582;2022-11-20T04:19:05;39.10;;;15.20;;
69434;SDS011;56625;54.322;18.582;2022-11-20T04:21:33;26.80;;;12.00;;
69434;SDS011;56625;54.322;18.582;2022-11-20T04:23:59;25.80;;;11.20;;
69434;SDS011;56625;54.322;18.582;2022-11-20T04:26:28;28.60;;;11.20;;
69434;SDS011;56625;54.322;18.582;2022-11-20T04:28:56;29.60;;;11.20;;
69434;SDS011;56625;54.322;18.582;2022-11-20T04:31:26;29.40;;;11.30;;
69434;SDS011;56625;54.322;18.582;2022-11-20T04:33:54;31.30;;;10.90;;
69434;SDS011;56625;54.322;18.582;2022-11-20T04:36:23;29.60;;;11.60;;
69434;SDS011;56625;54.322;18.582;2022-11-20T04:38:53;37.00;;;12.20;;
69434;SDS011;56625;54.322;18.582;2022-11-20T04:41:26;28.70;;;11.20;;
69434;SDS011;56625;54.322;18.582;2022-11-20T04:43:56;30.90;;;12.00;;
69434;SDS011;56625;54.322;18.582;2022-11-20T04:46:31;35.20;;;12.70;;
69434;SDS011;56625;54.322;18.582;2022-11-20T04:49:01;41.80;;;15.20;;
69434;SDS011;56625;54.322;18.582;2022-11-20T04:51:27;39.40;;;15.60;;
69434;SDS011;56625;54.322;18.582;2022-11-20T04:53:55;31.80;;;11.70;;
69434;SDS011;56625;54.322;18.582;2022-11-20T04:56:22;19.90;;;8.00;;
69434;SDS011;56625;54.322;18.582;2022-11-20T04:58:48;24.00;;;8.70;;
69434;SDS011;56625;54.322;18.582;2022-11-20T05:01:18;24.70;;;9.10;;
69434;SDS011;56625;54.322;18.582;2022-11-20T05:03:46;26.70;;;10.40;;
69434;SDS011;56625;54.322;18.582;2022-11-20T05:06:16;27.80;;;10.60;;
69434;SDS011;56625;54.322;18.582;2022-11-20T05:08:44;28.30;;;11.20;;
69434;SDS011;56625;54.322;18.582;2022-11-20T05:11:19;31.10;;;10.80;;
69434;SDS011;56625;54.322;18.582;2022-11-20T05:13:47;37.60;;;12.40;;
69434;SDS011;56625;54.322;18.582;2022-11-20T05:16:21;48.80;;;14.60;;
69434;SDS011;56625;54.322;18.582;2022-11-20T05:18:51;51.70;;;16.30;;
69434;SDS011;56625;54.322;18.582;2022-11-20T05:21:19;26.80;;;9.00;;
69434;SDS011;56625;54.322;18.582;2022-11-20T05:23:47;24.60;;;9.40;;
69434;SDS011;56625;54.322;18.582;2022-11-20T05:26:17;28.30;;;10.80;;
69434;SDS011;56625;54.322;18.582;2022-11-20T05:28:46;28.40;;;11.40;;
69434;SDS011;56625;54.322;18.582;2022-11-20T05:31:18;27.10;;;11.00;;
69434;SDS011;56625;54.322;18.582;2022-11-20T05:33:53;27.80;;;10.60;;
69434;SDS011;56625;54.322;18.582;2022-11-20T05:36:21;30.20;;;11.20;;
69434;SDS011;56625;54.322;18.582;2022-11-20T05:38:48;28.20;;;11.20;;
69434;SDS011;56625;54.322;18.582;2022-11-20T05:41:18;33.40;;;11.90;;
69434;SDS011;56625;54.322;18.582;2022-11-20T05:43:47;56.70;;;16.80;;
69434;SDS011;56625;54.322;18.582;2022-11-20T05:46:18;51.20;;;16.70;;
69434;SDS011;56625;54.322;18.582;2022-11-20T05:48:53;33.90;;;12.20;;
69434;SDS011;56625;54.322;18.582;2022-11-20T05:51:20;31.20;;;11.50;;
69434;SDS011;56625;54.322;18.582;2022-11-20T05:53:47;30.30;;;11.60;;
69434;SDS011;56625;54.322;18.582;2022-11-20T05:56:16;29.50;;;11.80;;
69434;SDS011;56625;54.322;18.582;2022-11-20T05:58:45;29.90;;;12.30;;
69434;SDS011;56625;54.322;18.582;2022-11-20T06:03:49;33.30;;;11.90;;
69434;SDS011;56625;54.322;18.582;2022-11-20T06:06:17;31.90;;;11.00;;
69434;SDS011;56625;54.322;18.582;2022-11-20T06:08:45;31.50;;;11.00;;
69434;SDS011;56625;54.322;18.582;2022-11-20T06:11:13;30.20;;;10.80;;
69434;SDS011;56625;54.322;18.582;2022-11-20T06:13:42;35.30;;;11.70;;
69434;SDS011;56625;54.322;18.582;2022-11-20T06:16:10;47.50;;;14.30;;
69434;SDS011;56625;54.322;18.582;2022-11-20T06:18:38;52.10;;;15.00;;
69434;SDS011;56625;54.322;18.582;2022-11-20T06:21:17;49.60;;;13.20;;
69434;SDS011;56625;54.322;18.582;2022-11-20T06:23:46;20.20;;;6.00;;
69434;SDS011;56625;54.322;18.582;2022-11-20T06:26:17;19.70;;;5.60;;
69434;SDS011;56625;54.322;18.582;2022-11-20T06:28:52;16.00;;;4.50;;
69434;SDS011;56625;54.322;18.582;2022-11-20T06:31:22;24.30;;;7.90;;
69434;SDS011;56625;54.322;18.582;2022-11-20T06:33:51;26.20;;;8.20;;
69434;SDS011;56625;54.322;18.582;2022-11-20T06:36:20;22.50;;;7.80;;
69434;SDS011;56625;54.322;18.582;2022-11-20T06:38:49;31.80;;;10.60;;
69434;SDS011;56625;54.322;18.582;2022-11-20T06:41:18;53.80;;;15.70;;
69434;SDS011;56625;54.322;18.582;2022-11-20T06:43:46;63.50;;;17.90;;
69434;SDS011;56625;54.322;18.582;2022-11-20T06:46:15;34.70;;;11.10;;
69434;SDS011;56625;54.322;18.582;2022-11-20T06:48:45;30.10;;;9.50;;
69434;SDS011;56625;54.322;18.582;2022-11-20T06:51:13;26.70;;;9.10;;
69434;SDS011;56625;54.322;18.582;2022-11-20T06:53:40;27.50;;;9.60;;
69434;SDS011;56625;54.322;18.582;2022-11-20T06:56:07;31.70;;;9.30;;
69434;SDS011;56625;54.322;18.582;2022-11-20T06:58:35;31.20;;;9.40;;
69434;SDS011;56625;54.322;18.582;2022-11-20T07:01:07;22.50;;;7.50;;
69434;SDS011;56625;54.322;18.582;2022-11-20T07:03:37;28.50;;;9.90;;
69434;SDS011;56625;54.322;18.582;2022-11-20T07:06:05;36.90;;;9.70;;
69434;SDS011;56625;54.322;18.582;2022-11-20T07:08:32;50.50;;;14.00;;
69434;SDS011;56625;54.322;18.582;2022-11-20T07:11:02;65.10;;;16.80;;
69434;SDS011;56625;54.322;18.582;2022-11-20T07:13:31;52.20;;;16.20;;
69434;SDS011;56625;54.322;18.582;2022-11-20T07:16:00;31.20;;;10.20;;
69434;SDS011;56625;54.322;18.582;2022-11-20T07:18:28;30.60;;;9.80;;
69434;SDS011;56625;54.322;18.582;2022-11-20T07:20:55;38.00;;;11.00;;
69434;SDS011;56625;54.322;18.582;2022-11-20T07:23:22;32.20;;;11.10;;
69434;SDS011;56625;54.322;18.582;2022-11-20T07:25:49;33.10;;;10.30;;
69434;SDS011;56625;54.322;18.582;2022-11-20T07:28:15;32.80;;;10.70;;
69434;SDS011;56625;54.322;18.582;2022-11-20T07:30:42;36.30;;;11.60;;
69434;SDS011;56625;54.322;18.582;2022-11-20T07:33:08;50.60;;;14.60;;
69434;SDS011;56625;54.322;18.582;2022-11-20T07:35:35;69.40;;;19.40;;
69434;SDS011;56625;54.322;18.582;2022-11-20T07:38:02;67.80;;;19.80;;
69434;SDS011;56625;54.322;18.582;2022-11-20T07:40:28;40.50;;;14.70;;
69434;SDS011;56625;54.322;18.582;2022-11-20T07:42:55;34.50;;;12.70;;
69434;SDS011;56625;54.322;18.582;2022-11-20T07:45:23;41.40;;;13.00;;
69434;SDS011;56625;54.322;18.582;2022-11-20T07:47:50;35.40;;;11.90;;
69434;SDS011;56625;54.322;18.582;2022-11-20T07:50:18;32.50;;;10.80;;
69434;SDS011;56625;54.322;18.582;2022-11-20T07:52:46;42.00;;;13.80;;
69434;SDS011;56625;54.322;18.582;2022-11-20T07:55:14;37.70;;;13.20;;
69434;SDS011;56625;54.322;18.582;2022-11-20T07:57:41;40.20;;;13.40;;
69434;SDS011;56625;54.322;18.582;2022-11-20T08:00:10;41.90;;;13.90;;
69434;SDS011;56625;54.322;18.582;2022-11-20T08:02:38;58.40;;;17.50;;
69434;SDS011;56625;54.322;18.582;2022-11-20T08:05:08;51.70;;;16.50;;
69434;SDS011;56625;54.322;18.582;2022-11-20T08:07:40;38.70;;;14.70;;
69434;SDS011;56625;54.322;18.582;2022-11-20T08:10:10;38.00;;;13.10;;
69434;SDS011;56625;54.322;18.582;2022-11-20T08:12:50;34.40;;;13.00;;
69434;SDS011;56625;54.322;18.582;2022-11-20T08:15:37;38.10;;;13.40;;
69434;SDS011;56625;54.322;18.582;2022-11-20T08:18:10;39.40;;;13.50;;
69434;SDS011;56625;54.322;18.582;2022-11-20T08:21:01;35.20;;;11.40;;
69434;SDS011;56625;54.322;18.582;2022-11-20T08:23:29;34.80;;;11.40;;
69434;SDS011;56625;54.322;18.582;2022-11-20T08:25:56;32.30;;;11.70;;
69434;SDS011;56625;54.322;18.582;2022-11-20T08:28:23;46.00;;;15.20;;
69434;SDS011;56625;54.322;18.582;2022-11-20T08:30:49;51.80;;;15.60;;
69434;SDS011;56625;54.322;18.582;2022-11-20T08:33:16;53.80;;;17.20;;
69434;SDS011;56625;54.322;18.582;2022-11-20T08:35:43;36.00;;;12.90;;
69434;SDS011;56625;54.322;18.582;2022-11-20T08:38:10;26.90;;;9.50;;
69434;SDS011;56625;54.322;18.582;2022-11-20T08:40:37;36.20;;;13.30;;
69434;SDS011;56625;54.322;18.582;2022-11-20T08:43:03;36.20;;;13.10;;
69434;SDS011;56625;54.322;18.582;2022-11-20T08:45:30;36.40;;;11.90;;
69434;SDS011;56625;54.322;18.582;2022-11-20T08:48:04;38.20;;;12.20;;
69434;SDS011;56625;54.322;18.582;2022-11-20T08:50:31;35.20;;;11.30;;
69434;SDS011;56625;54.322;18.582;2022-11-20T08:53:04;40.50;;;14.00;;
69434;SDS011;56625;54.322;18.582;2022-11-20T08:55:31;57.20;;;18.30;;
69434;SDS011;56625;54.322;18.582;2022-11-20T08:57:57;41.10;;;12.70;;
69434;SDS011;56625;54.322;18.582;2022-11-20T09:00:37;41.70;;;14.60;;
69434;SDS011;56625;54.322;18.582;2022-11-20T09:03:04;36.60;;;14.00;;
69434;SDS011;56625;54.322;18.582;2022-11-20T09:05:31;42.70;;;14.70;;
69434;SDS011;56625;54.322;18.582;2022-11-20T09:07:58;40.90;;;13.30;;
69434;SDS011;56625;54.322;18.582;2022-11-20T09:10:26;33.60;;;12.10;;
69434;SDS011;56625;54.322;18.582;2022-11-20T09:12:54;41.00;;;13.90;;
69434;SDS011;56625;54.322;18.582;2022-11-20T09:15:25;47.20;;;15.40;;
69434;SDS011;56625;54.322;18.582;2022-11-20T09:18:01;57.70;;;18.70;;
69434;SDS011;56625;54.322;18.582;2022-11-20T09:20:30;59.50;;;18.70;;
69434;SDS011;56625;54.322;18.582;2022-11-20T09:22:59;43.10;;;15.20;;
69434;SDS011;56625;54.322;18.582;2022-11-20T09:25:26;40.10;;;14.20;;
69434;SDS011;56625;54.322;18.582;2022-11-20T09:27:57;40.70;;;15.90;;
69434;SDS011;56625;54.322;18.582;2022-11-20T09:30:26;44.70;;;16.80;;
69434;SDS011;56625;54.322;18.582;2022-11-20T09:32:53;42.20;;;14.60;;
69434;SDS011;56625;54.322;18.582;2022-11-20T09:35:20;36.20;;;13.70;;
69434;SDS011;56625;54.322;18.582;2022-11-20T09:37:46;40.50;;;14.50;;
69434;SDS011;56625;54.322;18.582;2022-11-20T09:40:27;43.40;;;14.70;;
69434;SDS011;56625;54.322;18.582;2022-11-20T09:43:03;41.40;;;14.80;;
69434;SDS011;56625;54.322;18.582;2022-11-20T09:45:57;46.90;;;15.70;;
69434;SDS011;56625;54.322;18.582;2022-11-20T09:54:34;48.60;;;15.00;;
69434;SDS011;56625;54.322;18.582;2022-11-20T09:57:17;48.30;;;15.90;;
69434;SDS011;56625;54.322;18.582;2022-11-20T09:59:56;50.00;;;17.10;;
69434;SDS011;56625;54.322;18.582;2022-11-20T10:05:15;46.70;;;16.30;;
69434;SDS011;56625;54.322;18.582;2022-11-20T10:10:46;45.60;;;15.40;;
69434;SDS011;56625;54.322;18.582;2022-11-20T10:16:28;52.70;;;16.20;;
69434;SDS011;56625;54.322;18.582;2022-11-20T10:22:17;45.60;;;15.50;;
69434;SDS011;56625;54.322;18.582;2022-11-20T10:25:13;42.80;;;14.90;;
69434;SDS011;56625;54.322;18.582;2022-11-20T10:30:40;43.90;;;14.90;;
69434;SDS011;56625;54.322;18.582;2022-11-20T10:33:21;41.10;;;14.50;;
69434;SDS011;56625;54.322;18.582;2022-11-20T10:36:23;41.20;;;15.20;;
69434;SDS011;56625;54.322;18.582;2022-11-20T10:38:57;48.00;;;15.30;;
69434;SDS011;56625;54.322;18.582;2022-11-20T10:41:34;68.90;;;21.50;;
69434;SDS011;56625;54.322;18.582;2022-11-20T10:44:12;68.10;;;21.20;;
69434;SDS011;56625;54.322;18.582;2022-11-20T10:47:04;45.30;;;15.90;;
69434;SDS011;56625;54.322;18.582;2022-11-20T10:49:36;45.60;;;16.40;;
69434;SDS011;56625;54.322;18.582;2022-11-20T10:52:16;45.40;;;16.90;;
69434;SDS011;56625;54.322;18.582;2022-11-20T10:57:59;50.70;;;17.60;;
69434;SDS011;56625;54.322;18.582;2022-11-20T11:00:36;41.10;;;15.30;;
69434;SDS011;56625;54.322;18.582;2022-11-20T11:03:02;37.70;;;13.80;;
69434;SDS011;56625;54.322;18.582;2022-11-20T11:05:54;44.10;;;16.20;;
69434;SDS011;56625;54.322;18.582;2022-11-20T11:08:22;36.10;;;12.70;;
69434;SDS011;56625;54.322;18.582;2022-11-20T11:10:59;47.30;;;16.00;;
69434;SDS011;56625;54.322;18.582;2022-11-20T11:13:30;69.70;;;22.30;;
69434;SDS011;56625;54.322;18.582;2022-11-20T11:15:57;43.10;;;16.30;;
69434;SDS011;56625;54.322;18.582;2022-11-20T11:18:30;46.50;;;17.40;;
69434;SDS011;56625;54.322;18.582;2022-11-20T11:21:01;47.30;;;16.90;;
69434;SDS011;56625;54.322;18.582;2022-11-20T11:26:23;48.80;;;18.70;;
69434;SDS011;56625;54.322;18.582;2022-11-20T11:29:01;47.30;;;17.60;;
69434;SDS011;56625;54.322;18.582;2022-11-20T11:31:31;41.50;;;14.70;;
69434;SDS011;56625;54.322;18.582;2022-11-20T11:34:15;46.50;;;17.80;;
69434;SDS011;56625;54.322;18.582;2022-11-20T11:36:54;35.40;;;11.90;;
69434;SDS011;56625;54.322;18.582;2022-11-20T11:39:24;56.00;;;17.90;;
69434;SDS011;56625;54.322;18.582;2022-11-20T11:41:52;50.20;;;17.40;;
69434;SDS011;56625;54.322;18.582;2022-11-20T11:44:21;41.70;;;15.40;;
69434;SDS011;56625;54.322;18.582;2022-11-20T11:47:25;45.30;;;15.60;;
69434;SDS011;56625;54.322;18.582;2022-11-20T12:01:01;58.50;;;19.80;;
69434;SDS011;56625;54.322;18.582;2022-11-20T12:07:20;73.40;;;23.90;;
69434;SDS011;56625;54.322;18.582;2022-11-20T12:13:08;55.00;;;19.70;;
69434;SDS011;56625;54.322;18.582;2022-11-20T12:15:56;43.40;;;16.10;;
69434;SDS011;56625;54.322;18.582;2022-11-20T12:18:23;57.90;;;19.20;;
69434;SDS011;56625;54.322;18.582;2022-11-20T12:23:28;54.80;;;19.00;;
69434;SDS011;56625;54.322;18.582;2022-11-20T12:29:14;45.50;;;15.30;;
69434;SDS011;56625;54.322;18.582;2022-11-20T12:32:17;64.00;;;21.30;;
69434;SDS011;56625;54.322;18.582;2022-11-20T12:47:33;51.90;;;18.90;;
69434;SDS011;56625;54.322;18.582;2022-11-20T12:53:36;46.50;;;15.70;;
69434;SDS011;56625;54.322;18.582;2022-11-20T13:02:54;41.80;;;14.30;;
69434;SDS011;56625;54.322;18.582;2022-11-20T13:06:05;43.00;;;15.50;;
69434;SDS011;56625;54.322;18.582;2022-11-20T13:08:53;37.40;;;12.70;;
69434;SDS011;56625;54.322;18.582;2022-11-20T13:11:32;45.50;;;16.30;;
69434;SDS011;56625;54.322;18.582;2022-11-20T13:17:00;52.80;;;17.60;;
69434;SDS011;56625;54.322;18.582;2022-11-20T13:19:34;42.20;;;14.80;;
69434;SDS011;56625;54.322;18.582;2022-11-20T13:22:01;43.10;;;13.80;;
69434;SDS011;56625;54.322;18.582;2022-11-20T13:24:30;47.60;;;16.00;;
69434;SDS011;56625;54.322;18.582;2022-11-20T13:29:43;39.60;;;15.00;;
69434;SDS011;56625;54.322;18.582;2022-11-20T13:32:19;47.00;;;19.00;;
69434;SDS011;56625;54.322;18.582;2022-11-20T13:34:52;43.30;;;15.80;;
69434;SDS011;56625;54.322;18.582;2022-11-20T13:37:38;35.70;;;13.30;;
69434;SDS011;56625;54.322;18.582;2022-11-20T13:42:39;35.90;;;11.60;;
69434;SDS011;56625;54.322;18.582;2022-11-20T13:45:23;49.00;;;17.20;;
69434;SDS011;56625;54.322;18.582;2022-11-20T13:47:56;48.50;;;16.40;;
69434;SDS011;56625;54.322;18.582;2022-11-20T13:50:40;56.20;;;19.10;;
69434;SDS011;56625;54.322;18.582;2022-11-20T13:53:42;33.30;;;11.40;;
69434;SDS011;56625;54.322;18.582;2022-11-20T14:02:18;41.60;;;16.10;;
69434;SDS011;56625;54.322;18.582;2022-11-20T14:04:48;19.60;;;6.90;;
69434;SDS011;56625;54.322;18.582;2022-11-20T14:07:19;41.70;;;15.70;;
69434;SDS011;56625;54.322;18.582;2022-11-20T14:09:54;50.80;;;18.10;;
69434;SDS011;56625;54.322;18.582;2022-11-20T14:12:28;60.40;;;18.30;;
69434;SDS011;56625;54.322;18.582;2022-11-20T14:14:56;59.40;;;19.30;;
69434;SDS011;56625;54.322;18.582;2022-11-20T14:17:30;68.30;;;23.60;;
69434;SDS011;56625;54.322;18.582;2022-11-20T14:20:04;43.20;;;16.60;;
69434;SDS011;56625;54.322;18.582;2022-11-20T14:22:33;38.90;;;15.40;;
69434;SDS011;56625;54.322;18.582;2022-11-20T14:25:07;40.50;;;14.80;;
69434;SDS011;56625;54.322;18.582;2022-11-20T14:27:57;40.30;;;14.90;;
69434;SDS011;56625;54.322;18.582;2022-11-20T14:30:38;48.40;;;18.10;;
69434;SDS011;56625;54.322;18.582;2022-11-20T14:33:12;35.90;;;13.50;;
69434;SDS011;56625;54.322;18.582;2022-11-20T14:35:45;50.90;;;16.90;;
69434;SDS011;56625;54.322;18.582;2022-11-20T14:38:15;48.40;;;17.20;;
69434;SDS011;56625;54.322;18.582;2022-11-20T14:40:45;47.60;;;17.50;;
69434;SDS011;56625;54.322;18.582;2022-11-20T14:43:21;41.80;;;15.50;;
69434;SDS011;56625;54.322;18.582;2022-11-20T14:45:58;41.00;;;15.90;;
69434;SDS011;56625;54.322;18.582;2022-11-20T14:48:32;44.80;;;16.00;;
69434;SDS011;56625;54.322;18.582;2022-11-20T14:51:01;42.50;;;16.90;;
69434;SDS011;56625;54.322;18.582;2022-11-20T14:53:28;42.50;;;13.50;;
69434;SDS011;56625;54.322;18.582;2022-11-20T14:55:59;55.70;;;18.00;;
69434;SDS011;56625;54.322;18.582;2022-11-20T14:58:33;71.30;;;21.80;;
69434;SDS011;56625;54.322;18.582;2022-11-20T15:01:05;52.70;;;17.80;;
69434;SDS011;56625;54.322;18.582;2022-11-20T15:03:36;44.50;;;16.20;;
69434;SDS011;56625;54.322;18.582;2022-11-20T15:06:05;46.30;;;15.20;;
69434;SDS011;56625;54.322;18.582;2022-11-20T15:08:34;43.20;;;16.30;;
69434;SDS011;56625;54.322;18.582;2022-11-20T15:11:01;44.40;;;16.20;;
69434;SDS011;56625;54.322;18.582;2022-11-20T15:13:34;36.90;;;14.00;;
69434;SDS011;56625;54.322;18.582;2022-11-20T15:16:13;44.60;;;15.40;;
69434;SDS011;56625;54.322;18.582;2022-11-20T15:18:45;59.40;;;19.10;;
69434;SDS011;56625;54.322;18.582;2022-11-20T15:21:17;54.90;;;18.50;;
69434;SDS011;56625;54.322;18.582;2022-11-20T15:23:45;46.90;;;15.80;;
69434;SDS011;56625;54.322;18.582;2022-11-20T15:26:14;39.00;;;15.10;;
69434;SDS011;56625;54.322;18.582;2022-11-20T15:28:47;43.50;;;16.70;;
69434;SDS011;56625;54.322;18.582;2022-11-20T15:31:18;39.10;;;14.80;;
69434;SDS011;56625;54.322;18.582;2022-11-20T15:33:48;43.70;;;16.40;;
69434;SDS011;56625;54.322;18.582;2022-11-20T15:36:15;45.40;;;17.00;;
69434;SDS011;56625;54.322;18.582;2022-11-20T15:38:41;51.70;;;19.10;;
69434;SDS011;56625;54.322;18.582;2022-11-20T15:41:14;66.00;;;21.20;;
69434;SDS011;56625;54.322;18.582;2022-11-20T15:44:25;68.30;;;22.80;;
69434;SDS011;56625;54.322;18.582;2022-11-20T15:47:40;59.70;;;19.60;;
69434;SDS011;56625;54.322;18.582;2022-11-20T15:50:14;64.00;;;22.50;;
69434;SDS011;56625;54.322;18.582;2022-11-20T15:52:50;43.00;;;17.40;;
69434;SDS011;56625;54.322;18.582;2022-11-20T15:55:16;45.30;;;18.10;;
69434;SDS011;56625;54.322;18.582;2022-11-20T15:57:43;47.10;;;17.20;;
69434;SDS011;56625;54.322;18.582;2022-11-20T16:00:10;57.00;;;20.30;;
69434;SDS011;56625;54.322;18.582;2022-11-20T16:02:37;51.20;;;18.90;;
69434;SDS011;56625;54.322;18.582;2022-11-20T16:05:11;53.20;;;19.50;;
69434;SDS011;56625;54.322;18.582;2022-11-20T16:07:38;55.70;;;20.40;;
69434;SDS011;56625;54.322;18.582;2022-11-20T16:10:05;75.20;;;24.30;;
69434;SDS011;56625;54.322;18.582;2022-11-20T16:12:33;72.30;;;22.80;;
69434;SDS011;56625;54.322;18.582;2022-11-20T16:15:19;68.70;;;22.40;;